sensor_id;sensor_type;location;lat;lon;timestamp;P1;durP1;ratioP1;P2;durP2;ratioP2
29574;SDS011;16507;51.046;6.406;2023-05-07T00:02:21;13.98;;;12.60;;
29574;SDS011;16507;51.046;6.406;2023-05-07T00:04:47;14.23;;;12.52;;
29574;SDS011;16507;51.046;6.406;2023-05-07T00:07:13;17.58;;;13.10;;
29574;SDS011;16507;51.046;6.406;2023-05-07T00:09:39;13.82;;;12.63;;
29574;SDS011;16507;51.046;6.406;2023-05-07T00:12:05;16.50;;;12.75;;
29574;SDS011;16507;51.046;6.406;2023-05-07T00:14:31;15.88;;;13.00;;
29574;SDS011;16507;51.046;6.406;2023-05-07T00:16:57;14.18;;;12.75;;
29574;SDS011;16507;51.046;6.406;2023-05-07T00:19:22;13.27;;;12.18;;
29574;SDS011;16507;51.046;6.406;2023-05-07T00:21:48;12.95;;;11.77;;
29574;SDS011;16507;51.046;6.406;2023-05-07T00:24:13;17.88;;;12.00;;
29574;SDS011;16507;51.046;6.406;2023-05-07T00:26:39;12.70;;;10.80;;
29574;SDS011;16507;51.046;6.406;2023-05-07T00:29:05;13.15;;;11.82;;
29574;SDS011;16507;51.046;6.406;2023-05-07T00:31:30;13.57;;;11.77;;
29574;SDS011;16507;51.046;6.406;2023-05-07T00:33:56;12.85;;;11.35;;
29574;SDS011;16507;51.046;6.406;2023-05-07T00:36:21;16.13;;;11.70;;
29574;SDS011;16507;51.046;6.406;2023-05-07T00:38:47;11.43;;;10.40;;
29574;SDS011;16507;51.046;6.406;2023-05-07T00:41:13;11.75;;;10.63;;
29574;SDS011;16507;51.046;6.406;2023-05-07T00:43:38;10.95;;;9.90;;
29574;SDS011;16507;51.046;6.406;2023-05-07T00:46:04;12.88;;;9.65;;
29574;SDS011;16507;51.046;6.406;2023-05-07T00:48:30;10.35;;;9.52;;
29574;SDS011;16507;51.046;6.406;2023-05-07T00:50:56;11.38;;;9.95;;
29574;SDS011;16507;51.046;6.406;2023-05-07T00:53:22;12.82;;;9.32;;
29574;SDS011;16507;51.046;6.406;2023-05-07T00:55:48;14.10;;;10.30;;
29574;SDS011;16507;51.046;6.406;2023-05-07T00:58:14;14.80;;;10.15;;
29574;SDS011;16507;51.046;6.406;2023-05-07T01:00:40;10.77;;;9.70;;
29574;SDS011;16507;51.046;6.406;2023-05-07T01:03:05;10.18;;;9.30;;
29574;SDS011;16507;51.046;6.406;2023-05-07T01:05:31;15.82;;;10.32;;
29574;SDS011;16507;51.046;6.406;2023-05-07T01:07:57;11.63;;;9.32;;
29574;SDS011;16507;51.046;6.406;2023-05-07T01:10:23;9.52;;;8.73;;
29574;SDS011;16507;51.046;6.406;2023-05-07T01:12:49;10.32;;;9.32;;
29574;SDS011;16507;51.046;6.406;2023-05-07T01:15:16;9.93;;;8.85;;
29574;SDS011;16507;51.046;6.406;2023-05-07T01:17:42;10.07;;;9.23;;
29574;SDS011;16507;51.046;6.406;2023-05-07T01:20:08;10.23;;;8.90;;
29574;SDS011;16507;51.046;6.406;2023-05-07T01:22:35;9.20;;;8.48;;
29574;SDS011;16507;51.046;6.406;2023-05-07T01:25:03;10.63;;;9.50;;
29574;SDS011;16507;51.046;6.406;2023-05-07T01:27:30;9.20;;;8.48;;
29574;SDS011;16507;51.046;6.406;2023-05-07T01:29:56;13.25;;;9.75;;
29574;SDS011;16507;51.046;6.406;2023-05-07T01:32:43;12.52;;;9.27;;
29574;SDS011;16507;51.046;6.406;2023-05-07T01:35:09;11.70;;;10.50;;
29574;SDS011;16507;51.046;6.406;2023-05-07T01:37:39;11.80;;;10.00;;
29574;SDS011;16507;51.046;6.406;2023-05-07T01:40:05;11.63;;;10.52;;
29574;SDS011;16507;51.046;6.406;2023-05-07T01:42:32;13.55;;;9.75;;
29574;SDS011;16507;51.046;6.406;2023-05-07T01:44:58;16.67;;;10.73;;
29574;SDS011;16507;51.046;6.406;2023-05-07T01:47:24;15.00;;;9.90;;
29574;SDS011;16507;51.046;6.406;2023-05-07T01:49:50;15.18;;;11.63;;
29574;SDS011;16507;51.046;6.406;2023-05-07T01:52:20;13.90;;;12.20;;
29574;SDS011;16507;51.046;6.406;2023-05-07T01:54:45;14.55;;;11.95;;
29574;SDS011;16507;51.046;6.406;2023-05-07T01:57:11;22.85;;;12.98;;
29574;SDS011;16507;51.046;6.406;2023-05-07T01:59:36;17.80;;;12.65;;
29574;SDS011;16507;51.046;6.406;2023-05-07T02:02:02;20.33;;;13.82;;
29574;SDS011;16507;51.046;6.406;2023-05-07T02:04:28;25.50;;;13.85;;
29574;SDS011;16507;51.046;6.406;2023-05-07T02:06:53;20.75;;;14.20;;
29574;SDS011;16507;51.046;6.406;2023-05-07T02:09:19;21.33;;;13.00;;
29574;SDS011;16507;51.046;6.406;2023-05-07T02:11:45;22.33;;;13.70;;
29574;SDS011;16507;51.046;6.406;2023-05-07T02:14:11;20.40;;;13.05;;
29574;SDS011;16507;51.046;6.406;2023-05-07T02:16:36;18.35;;;12.50;;
29574;SDS011;16507;51.046;6.406;2023-05-07T02:19:02;21.88;;;13.35;;
29574;SDS011;16507;51.046;6.406;2023-05-07T02:21:27;21.23;;;12.45;;
29574;SDS011;16507;51.046;6.406;2023-05-07T02:23:53;16.38;;;12.02;;
29574;SDS011;16507;51.046;6.406;2023-05-07T02:26:19;21.65;;;12.52;;
29574;SDS011;16507;51.046;6.406;2023-05-07T02:28:44;16.25;;;11.18;;
29574;SDS011;16507;51.046;6.406;2023-05-07T02:31:10;15.05;;;10.93;;
29574;SDS011;16507;51.046;6.406;2023-05-07T02:33:35;11.80;;;9.73;;
29574;SDS011;16507;51.046;6.406;2023-05-07T02:36:05;11.35;;;9.90;;
29574;SDS011;16507;51.046;6.406;2023-05-07T02:38:37;14.02;;;10.50;;
29574;SDS011;16507;51.046;6.406;2023-05-07T02:41:02;13.85;;;10.25;;
29574;SDS011;16507;51.046;6.406;2023-05-07T02:43:28;20.55;;;11.00;;
29574;SDS011;16507;51.046;6.406;2023-05-07T02:46:04;21.20;;;12.30;;
29574;SDS011;16507;51.046;6.406;2023-05-07T02:48:31;14.65;;;10.82;;
29574;SDS011;16507;51.046;6.406;2023-05-07T02:50:57;17.77;;;11.15;;
29574;SDS011;16507;51.046;6.406;2023-05-07T02:53:23;16.55;;;11.48;;
29574;SDS011;16507;51.046;6.406;2023-05-07T02:55:51;19.58;;;11.73;;
29574;SDS011;16507;51.046;6.406;2023-05-07T02:58:17;16.25;;;10.85;;
29574;SDS011;16507;51.046;6.406;2023-05-07T03:00:43;18.23;;;11.23;;
29574;SDS011;16507;51.046;6.406;2023-05-07T03:03:09;28.58;;;11.18;;
29574;SDS011;16507;51.046;6.406;2023-05-07T03:05:35;12.98;;;10.65;;
29574;SDS011;16507;51.046;6.406;2023-05-07T03:08:01;14.00;;;11.07;;
29574;SDS011;16507;51.046;6.406;2023-05-07T03:10:27;18.08;;;11.50;;
29574;SDS011;16507;51.046;6.406;2023-05-07T03:12:53;18.23;;;11.63;;
29574;SDS011;16507;51.046;6.406;2023-05-07T03:15:19;18.70;;;11.77;;
29574;SDS011;16507;51.046;6.406;2023-05-07T03:17:44;25.60;;;13.10;;
29574;SDS011;16507;51.046;6.406;2023-05-07T03:20:10;21.60;;;13.65;;
29574;SDS011;16507;51.046;6.406;2023-05-07T03:22:36;25.88;;;14.77;;
29574;SDS011;16507;51.046;6.406;2023-05-07T03:25:02;23.77;;;14.07;;
29574;SDS011;16507;51.046;6.406;2023-05-07T03:27:27;28.08;;;14.02;;
29574;SDS011;16507;51.046;6.406;2023-05-07T03:29:53;18.95;;;13.70;;
29574;SDS011;16507;51.046;6.406;2023-05-07T03:32:18;37.13;;;15.52;;
29574;SDS011;16507;51.046;6.406;2023-05-07T03:34:44;33.40;;;15.55;;
29574;SDS011;16507;51.046;6.406;2023-05-07T03:37:10;27.63;;;15.40;;
29574;SDS011;16507;51.046;6.406;2023-05-07T03:39:35;30.08;;;16.05;;
29574;SDS011;16507;51.046;6.406;2023-05-07T03:42:01;30.40;;;17.98;;
29574;SDS011;16507;51.046;6.406;2023-05-07T03:44:27;31.40;;;17.90;;
29574;SDS011;16507;51.046;6.406;2023-05-07T03:46:53;40.28;;;19.90;;
29574;SDS011;16507;51.046;6.406;2023-05-07T03:49:18;36.45;;;19.75;;
29574;SDS011;16507;51.046;6.406;2023-05-07T03:51:44;31.75;;;18.42;;
29574;SDS011;16507;51.046;6.406;2023-05-07T03:54:10;31.38;;;18.02;;
29574;SDS011;16507;51.046;6.406;2023-05-07T03:56:35;30.45;;;18.20;;
29574;SDS011;16507;51.046;6.406;2023-05-07T03:59:04;30.08;;;17.90;;
29574;SDS011;16507;51.046;6.406;2023-05-07T04:01:30;38.42;;;19.10;;
29574;SDS011;16507;51.046;6.406;2023-05-07T04:03:55;34.17;;;17.35;;
29574;SDS011;16507;51.046;6.406;2023-05-07T04:06:21;32.47;;;19.02;;
29574;SDS011;16507;51.046;6.406;2023-05-07T04:08:47;31.08;;;17.60;;
29574;SDS011;16507;51.046;6.406;2023-05-07T04:11:12;33.45;;;18.50;;
29574;SDS011;16507;51.046;6.406;2023-05-07T04:13:38;35.85;;;18.83;;
29574;SDS011;16507;51.046;6.406;2023-05-07T04:16:04;36.42;;;17.55;;
29574;SDS011;16507;51.046;6.406;2023-05-07T04:18:30;25.80;;;16.42;;
29574;SDS011;16507;51.046;6.406;2023-05-07T04:20:55;29.50;;;17.63;;
29574;SDS011;16507;51.046;6.406;2023-05-07T04:23:21;29.35;;;17.15;;
29574;SDS011;16507;51.046;6.406;2023-05-07T04:25:47;30.30;;;17.10;;
29574;SDS011;16507;51.046;6.406;2023-05-07T04:28:12;30.20;;;16.48;;
29574;SDS011;16507;51.046;6.406;2023-05-07T04:30:39;34.17;;;15.95;;
29574;SDS011;16507;51.046;6.406;2023-05-07T04:33:04;32.58;;;16.42;;
29574;SDS011;16507;51.046;6.406;2023-05-07T04:35:31;24.90;;;15.05;;
29574;SDS011;16507;51.046;6.406;2023-05-07T04:37:57;23.27;;;14.45;;
29574;SDS011;16507;51.046;6.406;2023-05-07T04:40:23;25.15;;;15.32;;
29574;SDS011;16507;51.046;6.406;2023-05-07T04:42:48;37.72;;;16.25;;
29574;SDS011;16507;51.046;6.406;2023-05-07T04:45:14;24.38;;;14.75;;
29574;SDS011;16507;51.046;6.406;2023-05-07T04:47:40;27.02;;;14.52;;
29574;SDS011;16507;51.046;6.406;2023-05-07T04:50:06;22.95;;;13.98;;
29574;SDS011;16507;51.046;6.406;2023-05-07T04:52:33;29.67;;;13.73;;
29574;SDS011;16507;51.046;6.406;2023-05-07T04:54:59;20.02;;;13.52;;
29574;SDS011;16507;51.046;6.406;2023-05-07T04:57:25;29.77;;;14.55;;
29574;SDS011;16507;51.046;6.406;2023-05-07T04:59:51;30.60;;;14.23;;
29574;SDS011;16507;51.046;6.406;2023-05-07T05:02:17;22.30;;;14.38;;
29574;SDS011;16507;51.046;6.406;2023-05-07T05:04:43;19.17;;;12.23;;
29574;SDS011;16507;51.046;6.406;2023-05-07T05:07:08;17.73;;;12.85;;
29574;SDS011;16507;51.046;6.406;2023-05-07T05:09:34;22.52;;;13.93;;
29574;SDS011;16507;51.046;6.406;2023-05-07T05:11:59;21.67;;;12.63;;
29574;SDS011;16507;51.046;6.406;2023-05-07T05:14:25;18.60;;;12.80;;
29574;SDS011;16507;51.046;6.406;2023-05-07T05:16:51;24.85;;;13.68;;
29574;SDS011;16507;51.046;6.406;2023-05-07T05:19:16;25.23;;;13.00;;
29574;SDS011;16507;51.046;6.406;2023-05-07T05:21:42;19.35;;;12.35;;
29574;SDS011;16507;51.046;6.406;2023-05-07T05:24:07;23.52;;;13.32;;
29574;SDS011;16507;51.046;6.406;2023-05-07T05:26:33;19.98;;;12.85;;
29574;SDS011;16507;51.046;6.406;2023-05-07T05:28:59;16.15;;;11.80;;
29574;SDS011;16507;51.046;6.406;2023-05-07T05:31:25;15.73;;;11.10;;
29574;SDS011;16507;51.046;6.406;2023-05-07T05:33:50;18.17;;;11.90;;
29574;SDS011;16507;51.046;6.406;2023-05-07T05:36:16;16.55;;;11.30;;
29574;SDS011;16507;51.046;6.406;2023-05-07T05:38:42;18.00;;;11.35;;
29574;SDS011;16507;51.046;6.406;2023-05-07T05:41:08;15.63;;;11.23;;
29574;SDS011;16507;51.046;6.406;2023-05-07T05:43:34;15.65;;;10.65;;
29574;SDS011;16507;51.046;6.406;2023-05-07T05:46:00;13.90;;;10.48;;
29574;SDS011;16507;51.046;6.406;2023-05-07T05:48:25;22.48;;;10.43;;
29574;SDS011;16507;51.046;6.406;2023-05-07T05:50:51;18.08;;;9.70;;
29574;SDS011;16507;51.046;6.406;2023-05-07T05:53:17;19.83;;;9.75;;
29574;SDS011;16507;51.046;6.406;2023-05-07T05:55:43;9.65;;;8.73;;
29574;SDS011;16507;51.046;6.406;2023-05-07T05:58:08;14.15;;;9.45;;
29574;SDS011;16507;51.046;6.406;2023-05-07T06:00:34;11.15;;;9.32;;
29574;SDS011;16507;51.046;6.406;2023-05-07T06:03:00;15.25;;;9.77;;
29574;SDS011;16507;51.046;6.406;2023-05-07T06:05:26;16.75;;;8.57;;
29574;SDS011;16507;51.046;6.406;2023-05-07T06:07:51;9.73;;;8.82;;
29574;SDS011;16507;51.046;6.406;2023-05-07T06:10:17;10.35;;;7.93;;
29574;SDS011;16507;51.046;6.406;2023-05-07T06:12:43;8.88;;;8.07;;
29574;SDS011;16507;51.046;6.406;2023-05-07T06:15:09;10.68;;;8.40;;
29574;SDS011;16507;51.046;6.406;2023-05-07T06:17:35;11.38;;;7.97;;
29574;SDS011;16507;51.046;6.406;2023-05-07T06:20:00;9.10;;;7.68;;
29574;SDS011;16507;51.046;6.406;2023-05-07T06:22:26;9.27;;;8.23;;
29574;SDS011;16507;51.046;6.406;2023-05-07T06:24:52;10.18;;;8.55;;
29574;SDS011;16507;51.046;6.406;2023-05-07T06:27:17;13.43;;;8.40;;
29574;SDS011;16507;51.046;6.406;2023-05-07T06:29:43;11.23;;;7.60;;
29574;SDS011;16507;51.046;6.406;2023-05-07T06:32:12;9.48;;;7.72;;
29574;SDS011;16507;51.046;6.406;2023-05-07T06:34:39;8.35;;;7.30;;
29574;SDS011;16507;51.046;6.406;2023-05-07T06:37:05;10.57;;;7.30;;
29574;SDS011;16507;51.046;6.406;2023-05-07T06:39:31;15.13;;;6.78;;
29574;SDS011;16507;51.046;6.406;2023-05-07T06:41:59;21.20;;;6.07;;
29574;SDS011;16507;51.046;6.406;2023-05-07T06:44:25;6.43;;;5.93;;
29574;SDS011;16507;51.046;6.406;2023-05-07T06:46:51;5.43;;;5.03;;
29574;SDS011;16507;51.046;6.406;2023-05-07T06:49:16;7.05;;;5.18;;
29574;SDS011;16507;51.046;6.406;2023-05-07T06:51:42;5.25;;;4.82;;
29574;SDS011;16507;51.046;6.406;2023-05-07T06:54:08;9.82;;;5.57;;
29574;SDS011;16507;51.046;6.406;2023-05-07T06:56:33;12.85;;;5.53;;
29574;SDS011;16507;51.046;6.406;2023-05-07T06:58:59;5.82;;;5.43;;
29574;SDS011;16507;51.046;6.406;2023-05-07T07:01:25;6.40;;;5.75;;
29574;SDS011;16507;51.046;6.406;2023-05-07T07:03:51;8.52;;;5.00;;
29574;SDS011;16507;51.046;6.406;2023-05-07T07:06:17;7.95;;;5.20;;
29574;SDS011;16507;51.046;6.406;2023-05-07T07:08:42;7.70;;;5.60;;
29574;SDS011;16507;51.046;6.406;2023-05-07T07:11:08;7.55;;;5.10;;
29574;SDS011;16507;51.046;6.406;2023-05-07T07:13:34;5.53;;;5.03;;
29574;SDS011;16507;51.046;6.406;2023-05-07T07:16:00;5.72;;;4.97;;
29574;SDS011;16507;51.046;6.406;2023-05-07T07:18:26;8.93;;;4.30;;
29574;SDS011;16507;51.046;6.406;2023-05-07T07:20:51;8.18;;;3.97;;
29574;SDS011;16507;51.046;6.406;2023-05-07T07:23:17;4.15;;;3.72;;
29574;SDS011;16507;51.046;6.406;2023-05-07T07:25:43;5.55;;;4.40;;
29574;SDS011;16507;51.046;6.406;2023-05-07T07:28:08;7.47;;;4.30;;
29574;SDS011;16507;51.046;6.406;2023-05-07T07:30:35;5.68;;;3.95;;
29574;SDS011;16507;51.046;6.406;2023-05-07T07:33:01;5.40;;;4.05;;
29574;SDS011;16507;51.046;6.406;2023-05-07T07:35:37;4.38;;;4.07;;
29574;SDS011;16507;51.046;6.406;2023-05-07T07:38:02;4.60;;;4.18;;
29574;SDS011;16507;51.046;6.406;2023-05-07T07:40:28;4.20;;;3.90;;
29574;SDS011;16507;51.046;6.406;2023-05-07T07:42:54;5.05;;;3.67;;
29574;SDS011;16507;51.046;6.406;2023-05-07T07:45:20;5.40;;;4.13;;
29574;SDS011;16507;51.046;6.406;2023-05-07T07:47:46;6.95;;;4.38;;
29574;SDS011;16507;51.046;6.406;2023-05-07T07:50:11;6.15;;;3.72;;
29574;SDS011;16507;51.046;6.406;2023-05-07T07:52:37;4.18;;;3.88;;
29574;SDS011;16507;51.046;6.406;2023-05-07T07:55:03;4.28;;;3.90;;
29574;SDS011;16507;51.046;6.406;2023-05-07T07:57:29;6.53;;;3.90;;
29574;SDS011;16507;51.046;6.406;2023-05-07T07:59:55;5.07;;;3.60;;
29574;SDS011;16507;51.046;6.406;2023-05-07T08:02:21;3.33;;;3.03;;
29574;SDS011;16507;51.046;6.406;2023-05-07T08:04:46;2.95;;;2.75;;
29574;SDS011;16507;51.046;6.406;2023-05-07T08:07:12;8.05;;;3.22;;
29574;SDS011;16507;51.046;6.406;2023-05-07T08:09:38;3.75;;;3.38;;
29574;SDS011;16507;51.046;6.406;2023-05-07T08:12:07;3.13;;;2.92;;
29574;SDS011;16507;51.046;6.406;2023-05-07T08:14:33;4.47;;;3.15;;
29574;SDS011;16507;51.046;6.406;2023-05-07T08:16:59;3.60;;;3.30;;
29574;SDS011;16507;51.046;6.406;2023-05-07T08:19:25;3.72;;;2.90;;
29574;SDS011;16507;51.046;6.406;2023-05-07T08:21:50;2.67;;;2.47;;
29574;SDS011;16507;51.046;6.406;2023-05-07T08:24:16;5.82;;;2.70;;
29574;SDS011;16507;51.046;6.406;2023-05-07T08:26:43;2.75;;;2.22;;
29574;SDS011;16507;51.046;6.406;2023-05-07T08:29:10;5.82;;;2.20;;
29574;SDS011;16507;51.046;6.406;2023-05-07T08:31:35;2.67;;;2.47;;
29574;SDS011;16507;51.046;6.406;2023-05-07T08:34:01;2.45;;;2.30;;
29574;SDS011;16507;51.046;6.406;2023-05-07T08:36:28;2.60;;;2.40;;
29574;SDS011;16507;51.046;6.406;2023-05-07T08:38:53;3.80;;;2.55;;
29574;SDS011;16507;51.046;6.406;2023-05-07T08:41:19;5.13;;;2.58;;
29574;SDS011;16507;51.046;6.406;2023-05-07T08:43:49;3.28;;;2.40;;
29574;SDS011;16507;51.046;6.406;2023-05-07T08:46:22;2.75;;;2.55;;
29574;SDS011;16507;51.046;6.406;2023-05-07T08:48:51;4.53;;;2.28;;
29574;SDS011;16507;51.046;6.406;2023-05-07T08:51:18;2.75;;;2.15;;
29574;SDS011;16507;51.046;6.406;2023-05-07T08:53:44;4.15;;;2.13;;
29574;SDS011;16507;51.046;6.406;2023-05-07T08:56:11;2.47;;;2.28;;
29574;SDS011;16507;51.046;6.406;2023-05-07T08:58:37;3.80;;;1.77;;
29574;SDS011;16507;51.046;6.406;2023-05-07T09:01:03;2.05;;;1.50;;
29574;SDS011;16507;51.046;6.406;2023-05-07T09:03:33;2.30;;;1.70;;
29574;SDS011;16507;51.046;6.406;2023-05-07T09:05:58;2.00;;;1.80;;
29574;SDS011;16507;51.046;6.406;2023-05-07T09:08:24;1.65;;;1.42;;
29574;SDS011;16507;51.046;6.406;2023-05-07T09:10:51;4.40;;;1.65;;
29574;SDS011;16507;51.046;6.406;2023-05-07T09:13:17;1.52;;;1.42;;
29574;SDS011;16507;51.046;6.406;2023-05-07T09:15:43;1.70;;;1.50;;
29574;SDS011;16507;51.046;6.406;2023-05-07T09:18:09;4.95;;;1.75;;
29574;SDS011;16507;51.046;6.406;2023-05-07T09:20:36;3.10;;;1.63;;
29574;SDS011;16507;51.046;6.406;2023-05-07T09:23:02;1.65;;;1.30;;
29574;SDS011;16507;51.046;6.406;2023-05-07T09:25:28;3.55;;;1.00;;
29574;SDS011;16507;51.046;6.406;2023-05-07T09:27:55;5.53;;;1.27;;
29574;SDS011;16507;51.046;6.406;2023-05-07T09:30:20;2.60;;;0.90;;
29574;SDS011;16507;51.046;6.406;2023-05-07T09:32:46;3.65;;;0.80;;
29574;SDS011;16507;51.046;6.406;2023-05-07T09:35:17;0.98;;;0.90;;
29574;SDS011;16507;51.046;6.406;2023-05-07T09:37:43;1.95;;;1.33;;
29574;SDS011;16507;51.046;6.406;2023-05-07T09:40:28;8.35;;;1.60;;
29574;SDS011;16507;51.046;6.406;2023-05-07T09:42:56;2.80;;;1.30;;
29574;SDS011;16507;51.046;6.406;2023-05-07T09:45:35;2.42;;;1.38;;
29574;SDS011;16507;51.046;6.406;2023-05-07T09:48:02;1.67;;;1.58;;
29574;SDS011;16507;51.046;6.406;2023-05-07T09:50:35;1.52;;;1.40;;
29574;SDS011;16507;51.046;6.406;2023-05-07T09:53:05;3.78;;;1.80;;
29574;SDS011;16507;51.046;6.406;2023-05-07T09:55:34;4.13;;;1.58;;
29574;SDS011;16507;51.046;6.406;2023-05-07T09:58:01;5.38;;;2.05;;
29574;SDS011;16507;51.046;6.406;2023-05-07T10:00:27;9.38;;;2.30;;
29574;SDS011;16507;51.046;6.406;2023-05-07T10:02:54;1.80;;;1.70;;
29574;SDS011;16507;51.046;6.406;2023-05-07T10:05:22;5.45;;;1.55;;
29574;SDS011;16507;51.046;6.406;2023-05-07T10:07:49;3.75;;;1.35;;
29574;SDS011;16507;51.046;6.406;2023-05-07T10:10:15;7.78;;;1.60;;
29574;SDS011;16507;51.046;6.406;2023-05-07T10:12:42;12.18;;;1.65;;
29574;SDS011;16507;51.046;6.406;2023-05-07T10:15:08;7.07;;;1.00;;
29574;SDS011;16507;51.046;6.406;2023-05-07T10:17:35;2.50;;;1.10;;
29574;SDS011;16507;51.046;6.406;2023-05-07T10:20:02;5.32;;;1.25;;
29574;SDS011;16507;51.046;6.406;2023-05-07T10:22:30;5.07;;;0.82;;
29574;SDS011;16507;51.046;6.406;2023-05-07T10:25:14;5.03;;;1.10;;
29574;SDS011;16507;51.046;6.406;2023-05-07T10:27:43;1.50;;;0.68;;
29574;SDS011;16507;51.046;6.406;2023-05-07T10:32:59;0.98;;;0.77;;
29574;SDS011;16507;51.046;6.406;2023-05-07T10:35:39;1.45;;;1.05;;
29574;SDS011;16507;51.046;6.406;2023-05-07T10:38:06;5.72;;;0.90;;
29574;SDS011;16507;51.046;6.406;2023-05-07T10:40:32;1.10;;;0.80;;
29574;SDS011;16507;51.046;6.406;2023-05-07T10:42:59;2.45;;;0.65;;
29574;SDS011;16507;51.046;6.406;2023-05-07T10:45:26;1.45;;;0.80;;
29574;SDS011;16507;51.046;6.406;2023-05-07T10:50:33;5.80;;;0.80;;
29574;SDS011;16507;51.046;6.406;2023-05-07T10:55:47;4.20;;;0.98;;
29574;SDS011;16507;51.046;6.406;2023-05-07T10:58:26;2.40;;;0.85;;
29574;SDS011;16507;51.046;6.406;2023-05-07T11:00:56;3.67;;;0.90;;
29574;SDS011;16507;51.046;6.406;2023-05-07T11:03:24;3.45;;;0.90;;
29574;SDS011;16507;51.046;6.406;2023-05-07T11:06:09;1.38;;;0.80;;
29574;SDS011;16507;51.046;6.406;2023-05-07T11:11:17;5.68;;;1.30;;
29574;SDS011;16507;51.046;6.406;2023-05-07T11:13:44;3.63;;;1.20;;
29574;SDS011;16507;51.046;6.406;2023-05-07T11:16:17;2.83;;;1.05;;
29574;SDS011;16507;51.046;6.406;2023-05-07T11:18:47;4.55;;;1.20;;
29574;SDS011;16507;51.046;6.406;2023-05-07T11:24:02;1.80;;;1.40;;
29574;SDS011;16507;51.046;6.406;2023-05-07T11:26:29;1.50;;;1.00;;
29574;SDS011;16507;51.046;6.406;2023-05-07T11:28:56;1.92;;;1.30;;
29574;SDS011;16507;51.046;6.406;2023-05-07T11:31:25;2.88;;;1.00;;
29574;SDS011;16507;51.046;6.406;2023-05-07T11:33:56;3.92;;;1.20;;
29574;SDS011;16507;51.046;6.406;2023-05-07T11:36:23;6.32;;;1.42;;
29574;SDS011;16507;51.046;6.406;2023-05-07T11:38:49;1.55;;;1.10;;
29574;SDS011;16507;51.046;6.406;2023-05-07T11:41:15;7.30;;;1.30;;
29574;SDS011;16507;51.046;6.406;2023-05-07T11:43:55;3.08;;;1.30;;
29574;SDS011;16507;51.046;6.406;2023-05-07T11:46:22;6.28;;;1.33;;
29574;SDS011;16507;51.046;6.406;2023-05-07T11:48:47;2.88;;;1.20;;
29574;SDS011;16507;51.046;6.406;2023-05-07T11:51:13;1.20;;;1.10;;
29574;SDS011;16507;51.046;6.406;2023-05-07T11:53:44;6.35;;;1.75;;
29574;SDS011;16507;51.046;6.406;2023-05-07T11:56:11;3.60;;;1.10;;
29574;SDS011;16507;51.046;6.406;2023-05-07T11:58:39;2.22;;;1.60;;
29574;SDS011;16507;51.046;6.406;2023-05-07T12:01:06;2.40;;;1.10;;
29574;SDS011;16507;51.046;6.406;2023-05-07T12:03:34;6.90;;;1.17;;
29574;SDS011;16507;51.046;6.406;2023-05-07T12:06:01;2.15;;;1.00;;
29574;SDS011;16507;51.046;6.406;2023-05-07T12:08:27;1.30;;;1.20;;
29574;SDS011;16507;51.046;6.406;2023-05-07T12:10:53;2.55;;;1.20;;
29574;SDS011;16507;51.046;6.406;2023-05-07T12:15:46;2.70;;;1.23;;
29574;SDS011;16507;51.046;6.406;2023-05-07T12:18:16;11.15;;;1.27;;
29574;SDS011;16507;51.046;6.406;2023-05-07T12:20:42;1.25;;;1.05;;
29574;SDS011;16507;51.046;6.406;2023-05-07T12:23:08;3.03;;;1.30;;
29574;SDS011;16507;51.046;6.406;2023-05-07T12:25:34;5.28;;;1.38;;
29574;SDS011;16507;51.046;6.406;2023-05-07T12:28:04;2.35;;;0.88;;
29574;SDS011;16507;51.046;6.406;2023-05-07T12:30:37;1.23;;;0.88;;
29574;SDS011;16507;51.046;6.406;2023-05-07T12:33:03;4.57;;;0.95;;
29574;SDS011;16507;51.046;6.406;2023-05-07T12:35:29;3.95;;;1.17;;
29574;SDS011;16507;51.046;6.406;2023-05-07T12:37:56;2.15;;;0.90;;
29574;SDS011;16507;51.046;6.406;2023-05-07T12:40:24;2.35;;;1.15;;
29574;SDS011;16507;51.046;6.406;2023-05-07T12:43:42;1.27;;;1.17;;
29574;SDS011;16507;51.046;6.406;2023-05-07T12:46:03;1.33;;;1.07;;
29574;SDS011;16507;51.046;6.406;2023-05-07T12:48:30;4.13;;;1.10;;
29574;SDS011;16507;51.046;6.406;2023-05-07T12:50:57;1.55;;;1.40;;
29574;SDS011;16507;51.046;6.406;2023-05-07T12:53:24;3.33;;;0.93;;
29574;SDS011;16507;51.046;6.406;2023-05-07T12:55:52;1.48;;;1.30;;
29574;SDS011;16507;51.046;6.406;2023-05-07T12:58:26;11.90;;;1.27;;
29574;SDS011;16507;51.046;6.406;2023-05-07T13:00:58;5.63;;;1.30;;
29574;SDS011;16507;51.046;6.406;2023-05-07T13:03:29;2.45;;;1.23;;
29574;SDS011;16507;51.046;6.406;2023-05-07T13:06:01;1.20;;;1.10;;
29574;SDS011;16507;51.046;6.406;2023-05-07T13:08:39;1.33;;;1.10;;
29574;SDS011;16507;51.046;6.406;2023-05-07T13:11:11;11.95;;;1.60;;
29574;SDS011;16507;51.046;6.406;2023-05-07T13:13:38;7.50;;;1.50;;
29574;SDS011;16507;51.046;6.406;2023-05-07T13:16:05;3.25;;;0.90;;
29574;SDS011;16507;51.046;6.406;2023-05-07T13:18:32;1.30;;;1.17;;
29574;SDS011;16507;51.046;6.406;2023-05-07T13:20:59;6.20;;;1.35;;
29574;SDS011;16507;51.046;6.406;2023-05-07T13:23:25;6.32;;;2.00;;
29574;SDS011;16507;51.046;6.406;2023-05-07T13:25:52;2.38;;;1.90;;
29574;SDS011;16507;51.046;6.406;2023-05-07T13:28:19;4.53;;;1.77;;
29574;SDS011;16507;51.046;6.406;2023-05-07T13:30:45;3.45;;;1.50;;
29574;SDS011;16507;51.046;6.406;2023-05-07T13:33:11;4.68;;;2.05;;
29574;SDS011;16507;51.046;6.406;2023-05-07T13:35:37;2.17;;;1.80;;
29574;SDS011;16507;51.046;6.406;2023-05-07T13:38:03;2.88;;;1.40;;
29574;SDS011;16507;51.046;6.406;2023-05-07T13:40:29;1.67;;;1.15;;
29574;SDS011;16507;51.046;6.406;2023-05-07T13:42:56;2.78;;;0.80;;
29574;SDS011;16507;51.046;6.406;2023-05-07T13:45:23;0.82;;;0.60;;
29574;SDS011;16507;51.046;6.406;2023-05-07T13:47:50;0.95;;;0.68;;
29574;SDS011;16507;51.046;6.406;2023-05-07T13:50:16;0.80;;;0.40;;
29574;SDS011;16507;51.046;6.406;2023-05-07T13:52:43;0.50;;;0.40;;
29574;SDS011;16507;51.046;6.406;2023-05-07T13:55:15;0.40;;;0.40;;
29574;SDS011;16507;51.046;6.406;2023-05-07T13:57:44;1.60;;;0.60;;
29574;SDS011;16507;51.046;6.406;2023-05-07T14:00:11;1.02;;;0.70;;
29574;SDS011;16507;51.046;6.406;2023-05-07T14:02:37;1.20;;;0.90;;
29574;SDS011;16507;51.046;6.406;2023-05-07T14:05:03;1.80;;;0.70;;
29574;SDS011;16507;51.046;6.406;2023-05-07T14:07:29;0.82;;;0.50;;
29574;SDS011;16507;51.046;6.406;2023-05-07T14:09:56;1.00;;;0.50;;
29574;SDS011;16507;51.046;6.406;2023-05-07T14:12:22;0.50;;;0.40;;
29574;SDS011;16507;51.046;6.406;2023-05-07T14:14:47;3.05;;;0.55;;
29574;SDS011;16507;51.046;6.406;2023-05-07T14:17:15;0.50;;;0.50;;
29574;SDS011;16507;51.046;6.406;2023-05-07T14:19:44;1.70;;;0.40;;
29574;SDS011;16507;51.046;6.406;2023-05-07T14:22:10;1.13;;;0.40;;
29574;SDS011;16507;51.046;6.406;2023-05-07T14:24:38;1.40;;;0.40;;
29574;SDS011;16507;51.046;6.406;2023-05-07T14:27:04;0.60;;;0.40;;
29574;SDS011;16507;51.046;6.406;2023-05-07T14:29:30;1.00;;;0.85;;
29574;SDS011;16507;51.046;6.406;2023-05-07T14:31:56;0.60;;;0.60;;
29574;SDS011;16507;51.046;6.406;2023-05-07T14:34:21;1.05;;;0.80;;
29574;SDS011;16507;51.046;6.406;2023-05-07T14:36:47;0.98;;;0.85;;
29574;SDS011;16507;51.046;6.406;2023-05-07T14:39:13;1.98;;;0.65;;
29574;SDS011;16507;51.046;6.406;2023-05-07T14:41:38;1.58;;;0.93;;
29574;SDS011;16507;51.046;6.406;2023-05-07T14:44:04;0.70;;;0.70;;
29574;SDS011;16507;51.046;6.406;2023-05-07T14:46:30;2.15;;;0.80;;
29574;SDS011;16507;51.046;6.406;2023-05-07T14:48:56;1.10;;;1.00;;
29574;SDS011;16507;51.046;6.406;2023-05-07T14:51:22;1.00;;;0.65;;
29574;SDS011;16507;51.046;6.406;2023-05-07T14:53:49;0.98;;;0.80;;